Time;durP1;ratioP1;P1;durP2;ratioP2;P2;SDS_P1;SDS_P2;PMS_P1;PMS_P2;Temp;Humidity;BMP_temperature;BMP_pressure;BME280_temperature;BME280_humidity;BME280_pressure;Samples;Min_cycle;Max_cycle;Signal;HPM_P1;HPM_P2
2021/05/23 00:00:12;;;;;;;;;;;20.80;52.40;;;;;;5045305;28;19935;-69
2021/05/23 00:02:38;;;;;;;;;;;20.80;52.40;;;;;;5048062;28;19935;-69
2021/05/23 00:05:04;;;;;;;;;;;20.80;52.40;;;;;;5038710;28;19933;-69
2021/05/23 00:07:31;;;;;;;;;;;20.70;52.40;;;;;;5048892;28;19932;-68
2021/05/23 00:09:58;;;;;;;;;;;20.70;52.30;;;;;;5050060;28;19935;-69
2021/05/23 00:12:24;;;;;;;;;;;20.70;52.50;;;;;;5031166;28;19928;-69
2021/05/23 00:14:50;;;;;;;;;;;20.70;52.50;;;;;;5046143;28;19963;-70
2021/05/23 00:17:16;;;;;;;;;;;20.70;52.40;;;;;;5047165;28;20312;-71
2021/05/23 00:19:42;;;;;;;;;;;20.70;52.60;;;;;;5047499;28;19937;-69
2021/05/23 00:22:08;;;;;;;;;;;20.70;52.50;;;;;;5049175;28;19928;-69
2021/05/23 00:24:35;;;;;;;;;;;20.70;52.50;;;;;;5039263;28;19929;-70
2021/05/23 00:27:01;;;;;;;;;;;20.80;52.70;;;;;;5043660;28;20317;-68
2021/05/23 00:29:27;;;;;;;;;;;20.70;52.50;;;;;;5023351;28;19936;-70
2021/05/23 00:31:53;;;;;;;;;;;20.80;52.80;;;;;;5009054;28;19929;-69
2021/05/23 00:34:19;;;;;;;;;;;20.80;52.60;;;;;;5039550;28;19940;-70
2021/05/23 00:36:45;;;;;;;;;;;20.80;52.60;;;;;;5051474;28;20380;-69
2021/05/23 00:39:11;;;;;;;;;;;20.80;52.60;;;;;;5012764;28;20334;-70
2021/05/23 00:41:38;;;;;;;;;;;20.70;52.60;;;;;;5031868;28;19935;-69
2021/05/23 00:44:04;;;;;;;;;;;20.80;52.60;;;;;;5052185;28;19932;-69
2021/05/23 00:46:30;;;;;;;;;;;20.80;52.30;;;;;;5051284;28;19981;-69
2021/05/23 00:48:56;;;;;;;;;;;20.80;52.80;;;;;;5007285;28;20365;-69
2021/05/23 00:51:22;;;;;;;;;;;20.80;52.50;;;;;;5052600;28;19928;-70
2021/05/23 00:53:48;;;;;;;;;;;20.80;52.80;;;;;;5050771;28;19982;-70
2021/05/23 00:56:17;;;;;;;;;;;20.80;52.80;;;;;;5022785;28;20313;-69
2021/05/23 00:58:44;;;;;;;;;;;20.80;52.60;;;;;;5032622;28;19959;-69
2021/05/23 01:01:12;;;;;;;;;;;20.90;52.70;;;;;;5006165;28;20393;-68
2021/05/23 01:03:57;;;;;;;;;;;20.90;52.70;;;;;;5046355;28;20290;-69
2021/05/23 01:06:23;;;;;;;;;;;20.90;52.50;;;;;;5041455;28;19964;-70
2021/05/23 01:08:49;;;;;;;;;;;20.90;52.40;;;;;;5036431;28;19987;-69
2021/05/23 01:11:34;;;;;;;;;;;20.90;52.30;;;;;;5037687;28;19935;-69
2021/05/23 01:14:15;;;;;;;;;;;20.90;52.40;;;;;;5039472;28;19943;-69
2021/05/23 01:16:42;;;;;;;;;;;20.90;53.20;;;;;;5047040;28;19935;-69
2021/05/23 01:19:11;;;;;;;;;;;20.80;52.20;;;;;;5049904;28;20331;-69
2021/05/23 01:21:38;;;;;;;;;;;20.80;52.20;;;;;;5038505;28;21194;-69
2021/05/23 01:24:05;;;;;;;;;;;20.80;52.30;;;;;;5045382;28;19925;-69
2021/05/23 01:26:33;;;;;;;;;;;20.80;52.20;;;;;;5022613;28;19929;-71
2021/05/23 01:29:00;;;;;;;;;;;20.80;52.20;;;;;;5034130;28;19928;-69
2021/05/23 01:31:27;;;;;;;;;;;20.80;52.20;;;;;;5047558;28;19928;-69
2021/05/23 01:33:53;;;;;;;;;;;20.80;52.20;;;;;;5038160;28;20316;-69
2021/05/23 01:36:20;;;;;;;;;;;20.80;52.20;;;;;;4993143;28;19936;-70
2021/05/23 01:38:46;;;;;;;;;;;20.80;52.40;;;;;;5027072;28;19933;-69
2021/05/23 01:41:12;;;;;;;;;;;20.70;52.30;;;;;;5041979;28;19931;-69
2021/05/23 01:43:39;;;;;;;;;;;20.80;52.60;;;;;;5040911;28;19934;-69
2021/05/23 01:46:05;;;;;;;;;;;20.70;52.40;;;;;;5047840;28;19935;-69
2021/05/23 01:48:31;;;;;;;;;;;20.80;52.50;;;;;;5047592;28;19929;-69
2021/05/23 01:50:57;;;;;;;;;;;20.80;52.50;;;;;;4999300;28;19936;-69
2021/05/23 01:53:23;;;;;;;;;;;20.80;52.40;;;;;;5016902;28;20035;-69
2021/05/23 01:55:49;;;;;;;;;;;20.80;52.30;;;;;;5031104;28;20396;-69
2021/05/23 01:58:15;;;;;;;;;;;20.80;52.40;;;;;;5031518;28;19929;-70
2021/05/23 02:00:43;;;;;;;;;;;20.80;52.40;;;;;;5049060;28;19928;-68
2021/05/23 02:03:09;;;;;;;;;;;20.80;52.30;;;;;;5046681;28;19928;-69
2021/05/23 02:05:36;;;;;;;;;;;20.80;52.10;;;;;;5035464;28;19929;-70
2021/05/23 02:08:02;;;;;;;;;;;20.80;52.10;;;;;;5025095;28;19935;-69
2021/05/23 02:10:28;;;;;;;;;;;20.80;52.20;;;;;;5050500;28;19935;-70
2021/05/23 02:12:55;;;;;;;;;;;20.80;51.80;;;;;;5014903;28;20445;-68
2021/05/23 02:15:21;;;;;;;;;;;20.80;52.00;;;;;;5049264;28;19936;-69
2021/05/23 02:17:48;;;;;;;;;;;20.80;52.10;;;;;;5025431;28;20424;-70
2021/05/23 02:20:15;;;;;;;;;;;20.80;52.20;;;;;;5050595;28;20296;-71
2021/05/23 02:22:42;;;;;;;;;;;20.70;52.00;;;;;;5036675;28;20574;-69
2021/05/23 02:25:08;;;;;;;;;;;20.70;52.20;;;;;;5046531;28;19929;-68
2021/05/23 02:27:37;;;;;;;;;;;20.70;52.20;;;;;;5018937;28;19932;-68
2021/05/23 02:30:05;;;;;;;;;;;20.70;52.10;;;;;;5011275;28;19933;-69
2021/05/23 02:32:31;;;;;;;;;;;20.70;52.30;;;;;;5032122;28;19951;-69
2021/05/23 02:34:58;;;;;;;;;;;20.70;52.10;;;;;;5025295;28;19928;-69
2021/05/23 02:37:24;;;;;;;;;;;20.70;52.30;;;;;;5029906;28;19928;-69
2021/05/23 02:39:50;;;;;;;;;;;20.70;52.40;;;;;;5040557;28;20585;-70
2021/05/23 02:42:16;;;;;;;;;;;20.70;52.40;;;;;;5035465;28;19940;-69
2021/05/23 02:44:42;;;;;;;;;;;20.70;52.60;;;;;;5043812;28;19936;-69
2021/05/23 02:47:08;;;;;;;;;;;20.70;52.60;;;;;;5043291;28;19929;-70
2021/05/23 02:49:37;;;;;;;;;;;20.70;52.60;;;;;;5045130;28;19982;-69
2021/05/23 02:52:04;;;;;;;;;;;20.70;52.20;;;;;;5027532;28;19966;-69
2021/05/23 02:54:30;;;;;;;;;;;20.70;52.40;;;;;;5033780;28;19954;-68
2021/05/23 02:56:56;;;;;;;;;;;20.70;52.40;;;;;;5048151;28;19929;-70
2021/05/23 02:59:22;;;;;;;;;;;20.70;52.40;;;;;;5049170;28;19928;-68
2021/05/23 03:01:48;;;;;;;;;;;20.70;52.50;;;;;;5049404;28;20462;-67
2021/05/23 03:04:14;;;;;;;;;;;20.80;52.70;;;;;;5039362;28;19933;-70
2021/05/23 03:06:40;;;;;;;;;;;20.80;52.60;;;;;;5049324;28;19928;-68
2021/05/23 03:09:07;;;;;;;;;;;20.80;52.50;;;;;;5047013;28;19989;-69
2021/05/23 03:11:33;;;;;;;;;;;20.80;52.50;;;;;;5046035;28;19928;-69
2021/05/23 03:13:59;;;;;;;;;;;20.80;52.30;;;;;;5033438;28;20347;-69
2021/05/23 03:16:25;;;;;;;;;;;20.80;52.20;;;;;;5041308;28;19932;-68
2021/05/23 03:18:51;;;;;;;;;;;20.80;52.10;;;;;;5047897;28;19928;-68
2021/05/23 03:21:17;;;;;;;;;;;20.80;52.00;;;;;;5022500;28;19933;-70
2021/05/23 03:23:43;;;;;;;;;;;20.80;52.20;;;;;;5024854;28;20423;-69
2021/05/23 03:26:10;;;;;;;;;;;20.70;52.10;;;;;;5024323;28;19944;-69
2021/05/23 03:28:36;;;;;;;;;;;20.70;52.40;;;;;;5028499;28;19924;-70
2021/05/23 03:31:02;;;;;;;;;;;20.70;52.40;;;;;;5044030;28;19932;-69
2021/05/23 03:33:28;;;;;;;;;;;20.80;52.50;;;;;;5046701;28;19951;-69
2021/05/23 03:35:54;;;;;;;;;;;20.80;52.40;;;;;;5040236;28;19982;-70
2021/05/23 03:38:20;;;;;;;;;;;20.80;52.30;;;;;;5032950;28;19928;-69
2021/05/23 03:40:46;;;;;;;;;;;20.80;52.40;;;;;;5038382;28;19939;-69
2021/05/23 03:43:13;;;;;;;;;;;20.80;52.20;;;;;;5047414;28;19928;-70
2021/05/23 03:45:39;;;;;;;;;;;20.80;52.30;;;;;;5048278;28;19933;-68
2021/05/23 03:48:05;;;;;;;;;;;20.80;52.30;;;;;;5047078;28;19997;-69
2021/05/23 03:50:31;;;;;;;;;;;20.80;52.30;;;;;;5035001;28;20038;-68
2021/05/23 03:52:57;;;;;;;;;;;20.80;52.10;;;;;;5026199;28;20062;-69
2021/05/23 03:55:23;;;;;;;;;;;20.70;52.30;;;;;;5023312;28;19998;-68
2021/05/23 03:57:49;;;;;;;;;;;20.70;52.10;;;;;;5042735;28;19951;-69
2021/05/23 04:00:17;;;;;;;;;;;20.70;52.00;;;;;;5047411;28;19932;-70
2021/05/23 04:02:47;;;;;;;;;;;20.70;52.00;;;;;;5047602;28;20863;-69
2021/05/23 04:05:13;;;;;;;;;;;20.70;52.20;;;;;;5047565;28;21085;-69
2021/05/23 04:07:39;;;;;;;;;;;20.70;52.30;;;;;;5026923;28;20281;-69
2021/05/23 04:10:07;;;;;;;;;;;20.70;52.30;;;;;;5019689;28;19928;-69
2021/05/23 04:12:36;;;;;;;;;;;20.70;52.50;;;;;;5000090;28;19988;-69
2021/05/23 04:15:02;;;;;;;;;;;20.70;52.40;;;;;;4997347;28;19929;-69
2021/05/23 04:17:29;;;;;;;;;;;20.70;52.50;;;;;;5026029;28;19928;-69
2021/05/23 04:19:55;;;;;;;;;;;20.70;52.20;;;;;;5016551;28;20422;-69
2021/05/23 04:22:21;;;;;;;;;;;20.80;52.30;;;;;;5025295;28;19928;-69
2021/05/23 04:24:47;;;;;;;;;;;20.70;52.00;;;;;;5018506;28;19929;-71
2021/05/23 04:27:13;;;;;;;;;;;20.70;52.10;;;;;;5035362;28;19929;-69
2021/05/23 04:29:39;;;;;;;;;;;20.70;52.10;;;;;;5038452;28;20423;-69
2021/05/23 04:32:05;;;;;;;;;;;20.70;53.00;;;;;;5051742;28;19929;-69
2021/05/23 04:34:32;;;;;;;;;;;20.70;52.10;;;;;;5051808;28;20347;-70
2021/05/23 04:36:58;;;;;;;;;;;20.70;52.00;;;;;;5041003;28;19978;-69
2021/05/23 04:39:24;;;;;;;;;;;20.70;52.10;;;;;;5052265;28;19929;-70
2021/05/23 04:41:50;;;;;;;;;;;20.70;52.20;;;;;;5042152;28;19929;-69
2021/05/23 04:44:16;;;;;;;;;;;20.70;52.10;;;;;;5039784;28;20406;-69
2021/05/23 04:46:42;;;;;;;;;;;20.60;52.00;;;;;;5027285;28;19933;-67
2021/05/23 04:49:08;;;;;;;;;;;20.60;52.10;;;;;;5012244;28;19983;-69
2021/05/23 04:51:34;;;;;;;;;;;20.60;52.10;;;;;;5017787;28;19932;-70
2021/05/23 04:54:00;;;;;;;;;;;20.60;52.20;;;;;;5050518;28;19928;-69
2021/05/23 04:56:26;;;;;;;;;;;20.60;52.30;;;;;;5040569;28;20475;-69
2021/05/23 04:58:52;;;;;;;;;;;20.60;52.20;;;;;;5046358;28;19929;-69
2021/05/23 05:01:18;;;;;;;;;;;20.70;52.60;;;;;;5050738;28;19944;-69
2021/05/23 05:03:44;;;;;;;;;;;20.70;52.50;;;;;;5050780;28;19933;-70
2021/05/23 05:06:10;;;;;;;;;;;20.70;52.40;;;;;;5051450;28;20635;-69
2021/05/23 05:08:37;;;;;;;;;;;20.70;52.10;;;;;;5051170;28;19986;-70
2021/05/23 05:11:03;;;;;;;;;;;20.80;52.30;;;;;;5030533;28;19978;-69
2021/05/23 05:13:29;;;;;;;;;;;20.80;51.90;;;;;;5038092;28;19928;-69
2021/05/23 05:15:55;;;;;;;;;;;20.80;51.80;;;;;;5026925;28;20019;-69
2021/05/23 05:18:21;;;;;;;;;;;20.80;51.70;;;;;;5014470;28;19936;-68
2021/05/23 05:20:47;;;;;;;;;;;20.80;51.50;;;;;;5001692;28;19928;-69
2021/05/23 05:23:13;;;;;;;;;;;20.80;51.40;;;;;;5012271;28;19929;-70
2021/05/23 05:25:40;;;;;;;;;;;20.90;51.50;;;;;;5036335;28;20413;-70
2021/05/23 05:28:06;;;;;;;;;;;20.90;51.30;;;;;;5041074;28;20440;-69
2021/05/23 05:30:32;;;;;;;;;;;20.90;51.30;;;;;;5035567;28;20430;-72
2021/05/23 05:32:58;;;;;;;;;;;20.90;51.40;;;;;;5050403;28;19936;-70
2021/05/23 05:35:24;;;;;;;;;;;20.90;51.20;;;;;;5019006;28;19933;-70
2021/05/23 05:37:50;;;;;;;;;;;20.90;51.10;;;;;;5019704;28;19951;-69
2021/05/23 05:40:16;;;;;;;;;;;21.00;51.30;;;;;;5039542;28;19932;-69
2021/05/23 05:42:43;;;;;;;;;;;21.00;51.10;;;;;;5023124;28;19933;-69
2021/05/23 05:45:10;;;;;;;;;;;21.00;51.30;;;;;;5034807;28;21339;-70
2021/05/23 05:47:36;;;;;;;;;;;21.00;51.10;;;;;;5050899;28;19952;-70
2021/05/23 05:50:02;;;;;;;;;;;21.00;51.10;;;;;;5050130;28;19951;-70
2021/05/23 05:52:28;;;;;;;;;;;21.00;51.20;;;;;;5049006;28;20984;-70
2021/05/23 05:54:54;;;;;;;;;;;21.00;51.20;;;;;;5050117;28;19981;-72
2021/05/23 05:57:20;;;;;;;;;;;21.00;51.30;;;;;;5048727;28;19935;-68
2021/05/23 05:59:47;;;;;;;;;;;21.00;51.00;;;;;;5048903;28;19928;-68
2021/05/23 06:02:13;;;;;;;;;;;21.00;51.10;;;;;;5038976;28;19928;-68
2021/05/23 06:04:39;;;;;;;;;;;21.00;51.10;;;;;;5050080;28;19928;-68
2021/05/23 06:07:05;;;;;;;;;;;21.00;51.20;;;;;;5050653;28;20912;-68
2021/05/23 06:09:31;;;;;;;;;;;20.90;51.10;;;;;;5049480;28;19929;-69
2021/05/23 06:11:57;;;;;;;;;;;20.90;51.30;;;;;;5049519;28;19955;-68
2021/05/23 06:14:23;;;;;;;;;;;20.90;51.10;;;;;;5052642;28;19931;-70
2021/05/23 06:16:50;;;;;;;;;;;20.90;51.20;;;;;;5038289;28;20420;-69
2021/05/23 06:19:16;;;;;;;;;;;20.90;51.20;;;;;;5021870;28;19956;-70
2021/05/23 06:21:42;;;;;;;;;;;20.90;51.30;;;;;;5044673;28;19932;-68
2021/05/23 06:24:08;;;;;;;;;;;20.90;51.10;;;;;;4995301;28;19929;-69
2021/05/23 06:26:34;;;;;;;;;;;20.90;51.10;;;;;;5003577;28;19929;-69
2021/05/23 06:29:00;;;;;;;;;;;20.90;51.20;;;;;;4994021;28;19956;-69
2021/05/23 06:31:26;;;;;;;;;;;20.90;51.40;;;;;;5001310;28;20356;-69
2021/05/23 06:33:56;;;;;;;;;;;21.00;51.20;;;;;;5047195;28;19928;-69
2021/05/23 06:36:22;;;;;;;;;;;21.00;51.20;;;;;;5042685;28;19932;-69
2021/05/23 06:38:48;;;;;;;;;;;21.10;51.10;;;;;;5021201;28;19929;-69
2021/05/23 06:41:14;;;;;;;;;;;21.10;51.20;;;;;;5047143;28;20277;-68
2021/05/23 06:43:40;;;;;;;;;;;21.10;51.20;;;;;;5048988;28;19935;-69
2021/05/23 06:46:06;;;;;;;;;;;21.10;51.10;;;;;;5049339;28;19929;-68
2021/05/23 06:48:32;;;;;;;;;;;21.10;51.10;;;;;;5046840;28;19928;-68
2021/05/23 06:50:59;;;;;;;;;;;21.00;51.10;;;;;;5049036;28;19960;-69
2021/05/23 06:53:25;;;;;;;;;;;21.00;51.10;;;;;;5049795;28;20434;-69
2021/05/23 06:55:51;;;;;;;;;;;21.00;51.10;;;;;;5048857;28;19948;-70
2021/05/23 06:58:17;;;;;;;;;;;21.10;51.10;;;;;;5048884;28;19955;-70
2021/05/23 07:00:43;;;;;;;;;;;21.10;51.10;;;;;;5022701;28;19935;-68
2021/05/23 07:03:09;;;;;;;;;;;21.10;51.10;;;;;;5038711;28;19929;-70
2021/05/23 07:05:35;;;;;;;;;;;21.10;51.10;;;;;;5046304;28;19951;-69
2021/05/23 07:08:01;;;;;;;;;;;21.10;51.10;;;;;;5049605;28;20396;-69
2021/05/23 07:10:27;;;;;;;;;;;21.10;51.10;;;;;;5039698;28;19929;-69
2021/05/23 07:12:53;;;;;;;;;;;21.10;51.10;;;;;;5049932;28;19998;-70
2021/05/23 07:15:19;;;;;;;;;;;21.10;51.10;;;;;;5044638;28;19936;-69
2021/05/23 07:17:46;;;;;;;;;;;21.10;51.20;;;;;;5048499;28;20346;-69
2021/05/23 07:20:13;;;;;;;;;;;21.10;51.20;;;;;;5028452;28;21347;-70
2021/05/23 07:22:40;;;;;;;;;;;21.10;51.20;;;;;;5046940;28;20453;-68
2021/05/23 07:25:07;;;;;;;;;;;21.10;51.20;;;;;;5046583;28;20019;-67
2021/05/23 07:27:33;;;;;;;;;;;21.10;51.20;;;;;;5038273;28;19981;-69
2021/05/23 07:29:59;;;;;;;;;;;21.10;51.20;;;;;;5049308;28;19937;-68
2021/05/23 07:32:25;;;;;;;;;;;21.10;51.30;;;;;;4997628;28;20015;-68
2021/05/23 07:34:51;;;;;;;;;;;21.00;51.20;;;;;;5045090;28;19932;-68
2021/05/23 07:37:17;;;;;;;;;;;21.00;51.10;;;;;;5023665;28;19936;-68
2021/05/23 07:39:44;;;;;;;;;;;21.00;51.10;;;;;;5048991;28;19929;-68
2021/05/23 07:42:11;;;;;;;;;;;21.00;51.10;;;;;;5022264;28;19962;-70
2021/05/23 07:44:37;;;;;;;;;;;21.00;51.00;;;;;;5045675;28;19933;-68
2021/05/23 07:47:03;;;;;;;;;;;21.00;50.80;;;;;;5043990;28;19936;-69
2021/05/23 07:49:29;;;;;;;;;;;21.00;51.00;;;;;;5047530;28;19929;-69
2021/05/23 07:51:55;;;;;;;;;;;21.00;50.90;;;;;;5025949;28;19929;-70
2021/05/23 07:54:21;;;;;;;;;;;20.90;51.00;;;;;;5047110;28;19932;-69
2021/05/23 07:56:47;;;;;;;;;;;20.90;50.90;;;;;;5046042;28;19982;-69
2021/05/23 07:59:14;;;;;;;;;;;20.90;51.00;;;;;;5048245;28;19929;-70
2021/05/23 08:01:40;;;;;;;;;;;20.90;51.10;;;;;;5012175;28;19936;-70
2021/05/23 08:04:06;;;;;;;;;;;20.90;51.00;;;;;;5045777;28;19998;-71
2021/05/23 08:06:33;;;;;;;;;;;20.90;51.10;;;;;;5049024;28;19928;-69
2021/05/23 08:08:59;;;;;;;;;;;20.90;51.00;;;;;;5048767;28;19928;-70
2021/05/23 08:11:25;;;;;;;;;;;20.90;51.20;;;;;;5038883;28;19932;-68
2021/05/23 08:13:51;;;;;;;;;;;20.90;51.00;;;;;;5029821;28;20389;-68
2021/05/23 08:16:18;;;;;;;;;;;21.00;51.10;;;;;;5017461;28;19928;-70
2021/05/23 08:18:44;;;;;;;;;;;21.00;51.00;;;;;;5046650;28;19935;-69
2021/05/23 08:21:10;;;;;;;;;;;21.00;51.10;;;;;;5045957;28;20388;-69
2021/05/23 08:23:36;;;;;;;;;;;21.00;51.00;;;;;;5046585;28;19935;-69
2021/05/23 08:26:02;;;;;;;;;;;21.00;51.10;;;;;;5033262;28;19933;-70
2021/05/23 08:28:31;;;;;;;;;;;21.00;51.00;;;;;;5047272;28;19951;-68
2021/05/23 08:30:57;;;;;;;;;;;20.90;51.00;;;;;;5036529;28;20105;-68
2021/05/23 08:33:24;;;;;;;;;;;20.90;50.80;;;;;;5047994;28;20424;-67
2021/05/23 08:35:50;;;;;;;;;;;20.90;50.90;;;;;;5034593;28;19932;-69
2021/05/23 08:38:16;;;;;;;;;;;20.90;50.90;;;;;;4990338;28;19929;-70
2021/05/23 08:40:42;;;;;;;;;;;20.90;51.00;;;;;;4991943;28;20393;-70
2021/05/23 08:43:10;;;;;;;;;;;20.90;50.90;;;;;;5011782;28;19933;-67
2021/05/23 08:45:36;;;;;;;;;;;20.90;50.90;;;;;;5029371;28;20326;-69
2021/05/23 08:48:02;;;;;;;;;;;20.90;51.10;;;;;;5049102;28;19928;-69
2021/05/23 08:50:28;;;;;;;;;;;20.80;51.20;;;;;;5019180;28;20415;-70
2021/05/23 08:52:55;;;;;;;;;;;20.80;51.10;;;;;;5019723;28;20433;-69
2021/05/23 08:55:21;;;;;;;;;;;20.80;51.30;;;;;;4995301;28;19983;-68
2021/05/23 08:57:48;;;;;;;;;;;20.80;51.20;;;;;;5023434;28;19933;-69
2021/05/23 09:00:15;;;;;;;;;;;20.90;51.00;;;;;;5047676;28;19929;-69
2021/05/23 09:02:50;;;;;;;;;;;20.90;51.00;;;;;;5050892;28;19936;-69
2021/05/23 09:05:25;;;;;;;;;;;20.90;51.00;;;;;;5050843;28;19929;-69
2021/05/23 09:07:51;;;;;;;;;;;21.00;51.10;;;;;;5038621;28;19936;-70
2021/05/23 09:10:22;;;;;;;;;;;21.00;50.90;;;;;;5039480;28;19936;-69
2021/05/23 09:12:48;;;;;;;;;;;21.00;50.90;;;;;;5016512;28;20374;-69
2021/05/23 09:15:14;;;;;;;;;;;21.00;50.80;;;;;;5050641;28;19929;-71
2021/05/23 09:17:40;;;;;;;;;;;21.00;51.00;;;;;;5035914;28;19978;-71
2021/05/23 09:20:06;;;;;;;;;;;21.10;51.00;;;;;;5038755;28;19932;-69
2021/05/23 09:22:33;;;;;;;;;;;21.00;50.80;;;;;;5030016;28;19936;-68
2021/05/23 09:25:01;;;;;;;;;;;21.00;50.90;;;;;;5027221;28;20548;-70
2021/05/23 09:27:28;;;;;;;;;;;21.00;50.90;;;;;;5013358;28;20088;-69
2021/05/23 09:30:01;;;;;;;;;;;21.00;52.00;;;;;;5039191;28;21020;-68
2021/05/23 09:32:27;;;;;;;;;;;21.00;51.00;;;;;;5027297;28;19982;-68
2021/05/23 09:35:00;;;;;;;;;;;21.10;51.10;;;;;;5041316;28;20023;-68
2021/05/23 09:37:26;;;;;;;;;;;21.10;51.10;;;;;;5006146;28;19928;-69
2021/05/23 09:39:52;;;;;;;;;;;21.10;51.10;;;;;;5050399;28;19962;-70
2021/05/23 09:42:19;;;;;;;;;;;21.10;51.00;;;;;;5037073;28;21829;-68
2021/05/23 09:44:46;;;;;;;;;;;21.10;51.00;;;;;;5012105;28;19933;-69
2021/05/23 09:47:13;;;;;;;;;;;21.10;51.00;;;;;;5024976;28;19976;-68
2021/05/23 09:49:41;;;;;;;;;;;21.00;50.90;;;;;;5048762;28;20008;-68
2021/05/23 09:52:07;;;;;;;;;;;21.00;51.10;;;;;;5047166;28;20768;-69
2021/05/23 09:54:42;;;;;;;;;;;21.00;51.10;;;;;;5027703;28;19935;-68
2021/05/23 09:57:11;;;;;;;;;;;21.00;51.90;;;;;;5035651;28;19928;-70
2021/05/23 09:59:37;;;;;;;;;;;20.90;51.20;;;;;;5031428;28;20438;-69
2021/05/23 10:02:04;;;;;;;;;;;20.90;51.00;;;;;;5024061;28;19929;-69
2021/05/23 10:04:30;;;;;;;;;;;20.90;51.00;;;;;;5049758;28;20448;-70
2021/05/23 10:06:56;;;;;;;;;;;20.90;51.10;;;;;;5049982;28;19929;-70
2021/05/23 10:09:23;;;;;;;;;;;20.90;51.00;;;;;;5048068;28;19936;-69
2021/05/23 10:11:49;;;;;;;;;;;20.90;51.20;;;;;;5037395;28;19944;-70
2021/05/23 10:14:15;;;;;;;;;;;20.90;51.10;;;;;;5012962;28;20028;-69
2021/05/23 10:16:42;;;;;;;;;;;20.90;50.90;;;;;;5013375;28;19999;-69
2021/05/23 10:19:08;;;;;;;;;;;21.00;51.20;;;;;;5051862;28;19928;-68
2021/05/23 10:21:34;;;;;;;;;;;21.00;51.00;;;;;;5037192;28;20462;-68
2021/05/23 10:24:02;;;;;;;;;;;21.00;51.10;;;;;;5043806;28;20266;-68
2021/05/23 10:26:28;;;;;;;;;;;21.00;51.10;;;;;;5019132;28;19929;-69
2021/05/23 10:28:54;;;;;;;;;;;21.00;51.00;;;;;;5037932;28;19935;-67
2021/05/23 10:31:27;;;;;;;;;;;21.00;50.90;;;;;;5035232;28;19928;-70
2021/05/23 10:33:54;;;;;;;;;;;20.90;50.80;;;;;;5048193;28;19936;-68
2021/05/23 10:36:29;;;;;;;;;;;20.90;50.80;;;;;;5040389;28;19928;-68
2021/05/23 10:38:55;;;;;;;;;;;20.90;51.00;;;;;;5000132;28;20401;-68
2021/05/23 10:41:21;;;;;;;;;;;20.90;51.00;;;;;;5050393;28;20304;-70
2021/05/23 10:43:55;;;;;;;;;;;20.90;50.80;;;;;;5026236;28;19928;-69
2021/05/23 10:46:21;;;;;;;;;;;20.90;51.10;;;;;;5024252;28;20561;-70
2021/05/23 10:48:51;;;;;;;;;;;20.90;51.00;;;;;;5035215;28;20408;-72
2021/05/23 10:51:18;;;;;;;;;;;20.90;51.20;;;;;;5047395;28;19935;-69
2021/05/23 10:53:44;;;;;;;;;;;20.90;51.10;;;;;;5031112;28;20343;-69
2021/05/23 10:56:24;;;;;;;;;;;20.90;51.20;;;;;;5006931;28;20305;-71
2021/05/23 10:58:53;;;;;;;;;;;20.90;51.30;;;;;;5034889;28;19928;-71
2021/05/23 11:01:24;;;;;;;;;;;20.90;51.00;;;;;;5048631;28;19939;-68
2021/05/23 11:03:50;;;;;;;;;;;20.90;51.20;;;;;;5019698;28;19936;-68
2021/05/23 11:06:21;;;;;;;;;;;21.00;51.10;;;;;;5031433;28;19928;-67
2021/05/23 11:08:47;;;;;;;;;;;21.00;51.20;;;;;;5043607;28;20023;-69
2021/05/23 11:11:18;;;;;;;;;;;21.00;51.30;;;;;;5030590;28;19929;-70
2021/05/23 11:13:45;;;;;;;;;;;21.00;51.20;;;;;;5040762;28;19933;-69
2021/05/23 11:16:11;;;;;;;;;;;21.00;51.10;;;;;;5051843;28;19943;-69
2021/05/23 11:18:37;;;;;;;;;;;20.90;51.10;;;;;;5029551;28;20797;-68
2021/05/23 11:21:04;;;;;;;;;;;20.90;51.20;;;;;;5047984;28;19936;-68
2021/05/23 11:23:31;;;;;;;;;;;21.00;51.40;;;;;;5049235;28;19937;-70
2021/05/23 11:26:06;;;;;;;;;;;21.00;51.30;;;;;;5047633;28;19928;-69
2021/05/23 11:28:32;;;;;;;;;;;21.00;51.20;;;;;;5041470;28;19954;-69
2021/05/23 11:30:58;;;;;;;;;;;21.00;52.10;;;;;;5047451;28;19932;-69
2021/05/23 11:33:24;;;;;;;;;;;21.00;51.00;;;;;;5047965;28;19952;-70
2021/05/23 11:35:53;;;;;;;;;;;21.00;51.30;;;;;;5047280;28;20317;-71
2021/05/23 11:38:19;;;;;;;;;;;21.00;51.20;;;;;;5050057;28;19936;-70
2021/05/23 11:40:46;;;;;;;;;;;21.00;51.20;;;;;;5048592;28;19932;-68
2021/05/23 11:43:13;;;;;;;;;;;21.00;50.90;;;;;;5039459;28;21503;-69
2021/05/23 11:45:42;;;;;;;;;;;21.00;51.00;;;;;;5044503;28;19929;-69
2021/05/23 11:48:08;;;;;;;;;;;21.00;51.10;;;;;;5022657;28;19933;-69
2021/05/23 11:50:34;;;;;;;;;;;20.90;51.00;;;;;;5045446;28;20872;-68
2021/05/23 11:53:00;;;;;;;;;;;20.90;51.30;;;;;;5036742;28;20544;-68
2021/05/23 11:55:26;;;;;;;;;;;20.90;51.20;;;;;;5025245;28;20316;-70
2021/05/23 11:58:03;;;;;;;;;;;20.90;51.30;;;;;;5022452;28;19929;-69
2021/05/23 12:00:29;;;;;;;;;;;20.90;51.10;;;;;;5043603;28;21041;-70
2021/05/23 12:02:56;;;;;;;;;;;20.90;51.40;;;;;;5042672;28;19940;-68
2021/05/23 12:05:23;;;;;;;;;;;20.90;51.30;;;;;;5048971;28;19928;-70
2021/05/23 12:07:50;;;;;;;;;;;20.90;51.20;;;;;;5048578;28;19955;-68
2021/05/23 12:10:21;;;;;;;;;;;20.90;51.20;;;;;;5040031;28;20004;-69
2021/05/23 12:12:48;;;;;;;;;;;20.90;51.30;;;;;;5047808;28;20552;-70
2021/05/23 12:15:17;;;;;;;;;;;20.90;51.20;;;;;;5033006;28;19932;-70
2021/05/23 12:17:51;;;;;;;;;;;20.90;51.20;;;;;;5006877;28;19929;-69
2021/05/23 12:20:17;;;;;;;;;;;20.90;51.20;;;;;;5008033;28;19932;-69
2021/05/23 12:22:46;;;;;;;;;;;21.00;51.30;;;;;;5020236;28;19935;-70
2021/05/23 12:25:14;;;;;;;;;;;21.00;51.10;;;;;;5005110;28;19971;-70
2021/05/23 12:27:43;;;;;;;;;;;21.00;51.00;;;;;;4998310;28;20067;-69
2021/05/23 12:30:09;;;;;;;;;;;21.00;51.00;;;;;;4999119;28;19936;-69
2021/05/23 12:32:46;;;;;;;;;;;20.90;50.80;;;;;;5030307;28;19929;-69
2021/05/23 12:35:12;;;;;;;;;;;20.90;50.90;;;;;;5025029;28;19933;-67
2021/05/23 12:37:40;;;;;;;;;;;20.90;51.30;;;;;;5019517;28;20338;-71
2021/05/23 12:40:13;;;;;;;;;;;20.90;51.30;;;;;;5048812;28;20024;-68
2021/05/23 12:42:39;;;;;;;;;;;21.00;51.00;;;;;;5024168;28;19978;-71
2021/05/23 12:45:05;;;;;;;;;;;21.00;51.20;;;;;;5044960;28;19928;-69
2021/05/23 12:47:31;;;;;;;;;;;21.00;51.10;;;;;;5020166;28;19929;-70
2021/05/23 12:49:59;;;;;;;;;;;21.00;51.10;;;;;;5047290;28;19989;-70
2021/05/23 12:52:25;;;;;;;;;;;21.00;51.20;;;;;;5039972;28;19929;-68
2021/05/23 12:54:53;;;;;;;;;;;21.00;51.10;;;;;;5047960;28;19936;-69
2021/05/23 12:57:19;;;;;;;;;;;21.00;50.80;;;;;;5040286;28;21716;-69
2021/05/23 12:59:45;;;;;;;;;;;21.00;51.30;;;;;;5049811;28;19939;-69
2021/05/23 13:02:11;;;;;;;;;;;21.00;51.10;;;;;;5046717;28;19929;-70
2021/05/23 13:04:38;;;;;;;;;;;21.00;51.30;;;;;;5050338;28;19929;-69
2021/05/23 13:07:05;;;;;;;;;;;21.00;51.20;;;;;;5042428;28;20297;-69
2021/05/23 13:09:32;;;;;;;;;;;21.00;51.40;;;;;;5052845;28;19933;-69
2021/05/23 13:11:58;;;;;;;;;;;21.00;51.10;;;;;;5041887;28;19935;-68
2021/05/23 13:14:25;;;;;;;;;;;21.00;51.20;;;;;;5053556;28;19929;-68
2021/05/23 13:16:52;;;;;;;;;;;21.00;51.20;;;;;;5036724;28;19933;-68
2021/05/23 13:19:18;;;;;;;;;;;21.00;51.10;;;;;;5038992;28;19936;-68
2021/05/23 13:21:44;;;;;;;;;;;21.00;51.10;;;;;;5036135;28;20392;-68
2021/05/23 13:24:11;;;;;;;;;;;21.00;51.30;;;;;;5050553;28;19929;-69
2021/05/23 13:26:44;;;;;;;;;;;20.90;51.10;;;;;;5021677;28;20439;-69
2021/05/23 13:29:10;;;;;;;;;;;20.90;52.00;;;;;;5034282;28;21054;-69
2021/05/23 13:31:36;;;;;;;;;;;20.90;51.20;;;;;;5036168;28;19929;-70
2021/05/23 13:34:03;;;;;;;;;;;20.90;51.10;;;;;;5038585;28;19929;-69
2021/05/23 13:36:29;;;;;;;;;;;20.90;51.20;;;;;;5052637;28;20355;-71
2021/05/23 13:38:55;;;;;;;;;;;20.90;51.30;;;;;;5018278;28;19932;-69
2021/05/23 13:41:22;;;;;;;;;;;20.90;51.20;;;;;;5003457;28;19929;-67
2021/05/23 13:43:48;;;;;;;;;;;20.90;51.20;;;;;;5040628;28;20427;-68
2021/05/23 13:46:14;;;;;;;;;;;21.00;51.40;;;;;;5048425;28;19928;-69
2021/05/23 13:48:40;;;;;;;;;;;21.00;51.20;;;;;;5049007;28;19936;-69
2021/05/23 13:51:06;;;;;;;;;;;21.00;51.40;;;;;;4992939;28;19930;-70
2021/05/23 13:53:32;;;;;;;;;;;21.00;51.10;;;;;;5041448;28;20344;-72
2021/05/23 13:55:58;;;;;;;;;;;21.00;51.30;;;;;;5049444;28;19933;-69
2021/05/23 13:58:24;;;;;;;;;;;20.90;51.20;;;;;;5039122;28;20581;-68
2021/05/23 14:00:51;;;;;;;;;;;20.90;51.30;;;;;;5026646;28;20300;-70
2021/05/23 14:03:18;;;;;;;;;;;20.90;51.10;;;;;;5003433;28;19929;-68
2021/05/23 14:05:44;;;;;;;;;;;20.90;51.40;;;;;;5032489;28;19971;-68
2021/05/23 14:08:10;;;;;;;;;;;20.90;51.20;;;;;;5051636;28;19987;-68
2021/05/23 14:10:36;;;;;;;;;;;20.90;51.20;;;;;;5047914;28;19929;-69
2021/05/23 14:13:02;;;;;;;;;;;20.90;51.20;;;;;;5050488;28;20464;-69